This is the latest recevied weather packets stored in our database for station/object LRCK. If no packets are shown the sender has not sent any weather packets the latest 1 day(s).
| Time | Temp. | Humidity | Pressure | Rain* | Wind** | Luminosity | Snow |
|---|---|---|---|---|---|---|---|
| 1836274106 | 13.89° C | 67% | 1025 hPa | - | 3.58 m/s, 280° | - | - |
| 1778014099 | 7.78° C | 87% | 1016 hPa | - | 2.24 m/s, 200° | - | - |
| 1778013197 | 7.78° C | 87% | 1016 hPa | - | 2.24 m/s, 200° | - | - |
| 1778012328 | 7.22° C | 87% | 1016 hPa | - | 3.13 m/s, 190° | - | - |
| 1778011398 | 7.22° C | 87% | 1016 hPa | - | 3.13 m/s, 190° | - | - |
| 1778010497 | 7.78° C | 87% | 1016 hPa | - | 3.58 m/s, 180° | - | - |
| 1778009597 | 7.78° C | 87% | 1016 hPa | - | 3.58 m/s, 180° | - | - |
| 1778008697 | 7.78° C | 82% | 1016 hPa | - | 3.13 m/s, 170° | - | - |
| 1778007797 | 7.78° C | 82% | 1016 hPa | - | 3.13 m/s, 170° | - | - |
| 1778006898 | 7.78° C | 82% | 1016 hPa | - | 3.13 m/s, 150° | - | - |
| 1778005998 | 7.78° C | 82% | 1016 hPa | - | 3.13 m/s, 150° | - | - |
| 1778005097 | 8.89° C | 82% | 1016 hPa | - | 2.68 m/s, 160° | - | - |
| 1778004197 | 8.89° C | 82% | 1016 hPa | - | 2.68 m/s, 160° | - | - |
| 1778003294 | 10° C | 82% | 1015 hPa | - | 3.13 m/s, 140° | - | - |
| 1778002397 | 10° C | 82% | 1015 hPa | - | 3.13 m/s, 140° | - | - |
| 1778001497 | 11.11° C | 82% | 1015 hPa | - | 3.13 m/s, 130° | - | - |
| 1778000597 | 11.11° C | 82% | 1015 hPa | - | 3.13 m/s, 130° | - | - |
| 1777999697 | 12.78° C | 67% | 1015 hPa | - | 4.02 m/s, 120° | - | - |
| 1777998797 | 12.78° C | 67% | 1015 hPa | - | 4.02 m/s, 120° | - | - |
| 1777997898 | 13.89° C | 63% | 1015 hPa | - | 4.02 m/s, 130° | - | - |
| 1777996997 | 13.89° C | 63% | 1015 hPa | - | 4.02 m/s, 130° | - | - |
| 1777996098 | 15° C | 59% | 1015 hPa | - | 4.47 m/s, 130° | - | - |
| 1777995197 | 15° C | 59% | 1015 hPa | - | 4.47 m/s, 130° | - | - |
| 1777994305 | 16.11° C | 55% | 1016 hPa | - | 4.47 m/s, 120° | - | - |
| 1777993398 | 16.11° C | 55% | 1016 hPa | - | 4.47 m/s, 120° | - | - |
* Rain since midnight (hover to see other rain measurements)
** Current wind speed in m/s (hover to see current wind gust speed)